createdAt,value
2024-01-21T00:00:14.335Z,23.04
2024-01-21T00:02:44.802Z,23.06
2024-01-21T00:05:15.540Z,23.10
2024-01-21T00:07:45.394Z,23.12
2024-01-21T00:10:16.193Z,23.19
2024-01-21T00:12:46.588Z,23.24
2024-01-21T00:15:17.587Z,23.27
2024-01-21T00:17:47.534Z,23.24
2024-01-21T00:20:18.733Z,23.29
2024-01-21T00:22:48.754Z,23.27
2024-01-21T00:25:18.601Z,23.27
2024-01-21T00:27:48.927Z,23.29
2024-01-21T00:30:18.974Z,23.31
2024-01-21T00:32:49.323Z,23.34
2024-01-21T00:35:19.416Z,23.29
2024-01-21T00:37:49.946Z,23.26
2024-01-21T00:40:19.923Z,23.25
2024-01-21T00:42:50.296Z,23.16
2024-01-21T00:45:20.359Z,23.23
2024-01-21T00:47:51.834Z,23.26
2024-01-21T00:50:21.975Z,23.27
2024-01-21T00:52:52.261Z,23.31
2024-01-21T00:55:22.240Z,23.36
2024-01-21T00:57:55.362Z,23.39
2024-01-21T01:00:28.087Z,23.41
2024-01-21T01:02:58.390Z,23.42
2024-01-21T01:05:28.535Z,23.38
2024-01-21T01:07:58.773Z,23.34
2024-01-21T01:10:28.587Z,23.30
2024-01-21T01:13:00.563Z,23.37
2024-01-21T01:15:30.921Z,23.40
2024-01-21T01:18:01.212Z,23.36
2024-01-21T01:20:31.244Z,23.34
2024-01-21T01:23:01.458Z,23.32
2024-01-21T01:25:31.485Z,23.25
2024-01-21T01:28:01.895Z,23.22
2024-01-21T01:30:32.146Z,23.24
2024-01-21T01:33:02.520Z,23.26
2024-01-21T01:35:32.537Z,23.25
2024-01-21T01:38:02.793Z,23.25
2024-01-21T01:40:32.788Z,23.28
2024-01-21T01:43:04.537Z,23.24
2024-01-21T01:45:34.617Z,23.09
2024-01-21T01:48:06.129Z,22.99
2024-01-21T01:50:36.286Z,23.00
2024-01-21T01:53:06.889Z,22.97
2024-01-21T01:55:37.363Z,22.90
2024-01-21T01:58:07.871Z,22.90
2024-01-21T02:00:38.881Z,22.87
2024-01-21T02:03:09.210Z,22.86
2024-01-21T02:05:39.305Z,22.84
2024-01-21T02:08:09.695Z,22.83
2024-01-21T02:10:39.792Z,22.83
2024-01-21T02:13:10.151Z,22.78
2024-01-21T02:15:41.086Z,22.82
2024-01-21T02:18:12.657Z,22.78
2024-01-21T02:20:42.785Z,22.73
2024-01-21T02:23:13.081Z,22.71
2024-01-21T02:25:42.899Z,22.66
2024-01-21T02:28:14.846Z,22.62
2024-01-21T02:30:44.974Z,22.59
2024-01-21T02:33:15.556Z,22.58
2024-01-21T02:35:45.643Z,22.62
2024-01-21T02:38:15.879Z,22.63
2024-01-21T02:40:46.099Z,22.62
2024-01-21T02:43:16.336Z,22.62
2024-01-21T02:45:46.200Z,22.66
2024-01-21T02:48:16.539Z,22.64
2024-01-21T02:50:46.647Z,22.70
2024-01-21T02:53:16.874Z,22.70
2024-01-21T02:55:46.843Z,22.76
2024-01-21T02:58:17.148Z,22.82
2024-01-21T03:00:47.237Z,22.74
2024-01-21T03:03:17.534Z,22.65
2024-01-21T03:05:47.603Z,22.43
2024-01-21T03:08:17.840Z,22.30
2024-01-21T03:10:47.826Z,22.24
2024-01-21T03:13:18.493Z,22.16
2024-01-21T03:15:48.976Z,22.11
2024-01-21T03:18:19.300Z,22.10
2024-01-21T03:20:49.862Z,22.06
2024-01-21T03:23:21.219Z,22.10
2024-01-21T03:25:51.282Z,22.11
2024-01-21T03:28:21.576Z,22.06
2024-01-21T03:30:51.919Z,22.06
2024-01-21T03:33:22.276Z,22.11
2024-01-21T03:35:52.241Z,22.09
2024-01-21T03:38:23.032Z,22.09
2024-01-21T03:40:53.201Z,22.12
2024-01-21T03:43:23.702Z,22.08
2024-01-21T03:45:53.695Z,22.06
2024-01-21T03:48:24.220Z,22.07
2024-01-21T03:50:54.261Z,22.06
2024-01-21T03:53:24.463Z,22.06
2024-01-21T03:55:54.249Z,22.07
2024-01-21T03:58:24.518Z,22.08
2024-01-21T04:00:54.527Z,22.11
2024-01-21T04:03:26.496Z,22.12
2024-01-21T04:06:00.541Z,22.17
2024-01-21T04:08:30.761Z,22.15
2024-01-21T04:11:00.833Z,22.15
2024-01-21T04:13:31.073Z,22.16
2024-01-21T04:16:01.848Z,22.19
2024-01-21T04:18:32.210Z,22.21
2024-01-21T04:21:04.121Z,22.23
2024-01-21T04:23:34.397Z,22.27
2024-01-21T04:26:06.472Z,22.27
2024-01-21T04:28:38.847Z,22.24
2024-01-21T04:31:09.117Z,22.27
2024-01-21T04:33:39.604Z,22.28
2024-01-21T04:36:11.039Z,22.27
2024-01-21T04:38:41.366Z,22.30
2024-01-21T04:41:11.214Z,22.31
2024-01-21T04:43:43.874Z,22.34
2024-01-21T04:46:14.013Z,22.37
2024-01-21T04:48:44.501Z,22.43
2024-01-21T04:51:15.391Z,22.47
2024-01-21T04:53:46.737Z,22.46
2024-01-21T04:56:20.662Z,22.51
2024-01-21T04:58:51.892Z,22.53
2024-01-21T05:01:25.946Z,22.49
2024-01-21T05:03:56.271Z,22.52
2024-01-21T05:06:26.351Z,22.46
2024-01-21T05:08:56.752Z,22.44
2024-01-21T05:11:26.540Z,22.42
2024-01-21T05:13:57.199Z,22.39
2024-01-21T05:16:30.829Z,22.34
2024-01-21T05:19:01.611Z,22.33
2024-01-21T05:21:31.656Z,22.34
2024-01-21T05:24:01.494Z,22.30
2024-01-21T05:26:32.004Z,22.29
2024-01-21T05:29:02.967Z,22.24
2024-01-21T05:31:35.713Z,22.21
2024-01-21T05:34:05.083Z,22.20
2024-01-21T05:36:38.009Z,22.23
2024-01-21T05:39:08.746Z,22.17
2024-01-21T05:41:38.971Z,22.17
2024-01-21T05:44:09.374Z,22.17
2024-01-21T05:46:39.196Z,22.09
2024-01-21T05:49:09.724Z,22.04
2024-01-21T05:51:39.627Z,22.00
2024-01-21T05:54:09.709Z,21.95
2024-01-21T05:56:42.815Z,21.97
2024-01-21T05:59:15.304Z,21.90
2024-01-21T06:01:47.099Z,21.91
2024-01-21T06:04:17.161Z,21.87
2024-01-21T06:06:47.515Z,21.87
2024-01-21T06:09:19.945Z,21.81
2024-01-21T06:11:50.178Z,21.79
2024-01-21T06:14:20.166Z,21.80
2024-01-21T06:16:50.375Z,21.81
2024-01-21T06:19:20.666Z,21.82
2024-01-21T06:21:51.019Z,21.81
2024-01-21T06:24:21.103Z,21.86
2024-01-21T06:26:54.524Z,21.83
2024-01-21T06:29:24.539Z,21.81
2024-01-21T06:31:54.892Z,21.80
2024-01-21T06:34:24.990Z,21.78
2024-01-21T06:36:55.260Z,21.74
2024-01-21T06:39:25.324Z,21.73
2024-01-21T06:41:55.744Z,21.74
2024-01-21T06:44:25.732Z,21.72
2024-01-21T06:46:55.944Z,21.74
2024-01-21T06:49:26.042Z,21.71
2024-01-21T06:51:56.769Z,21.69
2024-01-21T06:54:26.818Z,21.68
2024-01-21T06:56:57.034Z,21.68
2024-01-21T06:59:27.123Z,21.60
2024-01-21T07:01:57.346Z,21.60
2024-01-21T07:04:27.444Z,21.61
2024-01-21T07:06:57.907Z,21.56
2024-01-21T07:09:27.966Z,21.52
2024-01-21T07:11:58.839Z,21.47
2024-01-21T07:14:36.038Z,21.40
2024-01-21T07:17:06.840Z,21.35
2024-01-21T07:19:37.176Z,21.37
2024-01-21T07:22:07.499Z,21.34
2024-01-21T07:24:37.940Z,21.33
2024-01-21T07:27:08.158Z,21.29
2024-01-21T07:29:38.170Z,21.26
2024-01-21T07:32:08.558Z,21.20
2024-01-21T07:34:38.794Z,21.18
2024-01-21T07:37:09.228Z,21.11
2024-01-21T07:39:39.303Z,21.04
2024-01-21T07:42:09.547Z,20.93
2024-01-21T07:44:39.506Z,20.83
2024-01-21T07:47:09.824Z,20.82
2024-01-21T07:49:40.006Z,20.70
2024-01-21T07:52:12.236Z,20.77
2024-01-21T07:54:42.229Z,20.74
2024-01-21T07:57:12.150Z,20.80
2024-01-21T07:59:42.604Z,20.85
2024-01-21T08:02:12.487Z,20.90
2024-01-21T08:04:42.945Z,20.99
2024-01-21T08:07:12.833Z,21.06
2024-01-21T08:09:43.270Z,21.14
2024-01-21T08:12:13.048Z,21.21
2024-01-21T08:14:43.431Z,21.23
2024-01-21T08:17:13.356Z,21.26
2024-01-21T08:19:44.711Z,21.36
2024-01-21T08:22:15.385Z,21.42
2024-01-21T08:24:45.847Z,21.37
2024-01-21T08:27:16.114Z,21.38
2024-01-21T08:29:46.738Z,21.42
2024-01-21T08:32:16.684Z,21.36
2024-01-21T08:34:47.365Z,21.36
2024-01-21T08:37:17.511Z,21.32
2024-01-21T08:39:49.810Z,21.35
2024-01-21T08:42:21.677Z,21.39
2024-01-21T08:44:52.275Z,21.39
2024-01-21T08:47:22.095Z,21.41
2024-01-21T08:49:52.040Z,21.44
2024-01-21T08:52:22.385Z,21.46
2024-01-21T08:54:52.280Z,21.54
2024-01-21T08:57:23.271Z,21.51
2024-01-21T08:59:53.592Z,21.52
2024-01-21T09:02:24.375Z,21.44
2024-01-21T09:04:54.490Z,21.46
2024-01-21T09:07:24.788Z,21.53
2024-01-21T09:09:54.908Z,21.55
2024-01-21T09:12:25.686Z,21.57
2024-01-21T09:14:55.756Z,21.60
2024-01-21T09:17:25.991Z,21.55
2024-01-21T09:19:56.153Z,21.67
2024-01-21T09:22:26.659Z,21.69
2024-01-21T09:24:57.294Z,21.76
2024-01-21T09:27:27.641Z,21.83
2024-01-21T09:29:57.645Z,21.88
2024-01-21T09:32:30.430Z,21.90
2024-01-21T09:35:00.097Z,21.88
2024-01-21T09:37:30.064Z,22.03
2024-01-21T09:40:00.578Z,22.17
2024-01-21T09:42:30.477Z,22.24
2024-01-21T09:45:02.477Z,22.23
2024-01-21T09:47:32.830Z,22.24
2024-01-21T09:50:03.427Z,22.27
2024-01-21T09:52:33.648Z,22.36
2024-01-21T09:55:03.860Z,22.43
2024-01-21T09:57:36.116Z,22.44
2024-01-21T10:00:08.531Z,22.49
2024-01-21T10:02:44.992Z,22.55
2024-01-21T10:05:15.505Z,22.62
2024-01-21T10:07:47.250Z,22.67
2024-01-21T10:10:17.646Z,22.78
2024-01-21T10:12:48.379Z,22.99
2024-01-21T10:15:19.118Z,23.09
2024-01-21T10:17:49.409Z,23.24
2024-01-21T10:20:20.891Z,23.36
2024-01-21T10:22:51.375Z,23.54
2024-01-21T10:25:23.564Z,23.78
2024-01-21T10:27:54.568Z,23.94
2024-01-21T10:30:24.808Z,24.08
2024-01-21T10:32:56.675Z,24.15
2024-01-21T10:35:27.510Z,24.36
2024-01-21T10:37:59.073Z,24.39
2024-01-21T10:40:29.023Z,24.21
2024-01-21T10:43:01.636Z,24.08
2024-01-21T10:45:31.726Z,23.83
2024-01-21T10:48:03.963Z,23.82
2024-01-21T10:50:34.352Z,24.06
2024-01-21T10:53:04.880Z,24.19
2024-01-21T10:55:37.155Z,24.29
2024-01-21T10:58:08.588Z,24.38
2024-01-21T11:00:40.604Z,24.51
2024-01-21T11:03:39.850Z,24.62
2024-01-21T11:06:12.596Z,24.70
2024-01-21T11:08:46.165Z,25.08
2024-01-21T11:11:18.929Z,25.43
2024-01-21T11:13:53.773Z,25.63
2024-01-21T11:16:32.770Z,25.85
2024-01-21T11:19:12.253Z,26.25
2024-01-21T11:21:46.272Z,26.47
2024-01-21T11:24:17.614Z,27.02
2024-01-21T11:26:50.242Z,28.73
2024-01-21T11:29:25.458Z,29.27
2024-01-21T11:32:00.489Z,29.27
2024-01-21T11:34:41.107Z,29.23
2024-01-21T11:37:18.465Z,29.41
2024-01-21T11:39:48.770Z,30.17
2024-01-21T11:42:24.497Z,29.27
2024-01-21T11:45:07.378Z,29.03
2024-01-21T11:47:37.988Z,28.06
2024-01-21T11:50:08.382Z,27.13
2024-01-21T11:52:40.834Z,26.67
2024-01-21T11:55:11.074Z,26.18
2024-01-21T11:57:41.751Z,25.87
2024-01-21T12:00:12.176Z,25.53
2024-01-21T12:02:42.319Z,25.23
2024-01-21T12:05:12.224Z,24.88
2024-01-21T12:07:42.964Z,24.84
2024-01-21T12:10:13.040Z,24.96
2024-01-21T12:12:44.070Z,24.96
2024-01-21T12:15:14.002Z,24.96
2024-01-21T12:17:44.068Z,25.02
2024-01-21T12:20:16.506Z,24.95
2024-01-21T12:22:48.151Z,24.93
2024-01-21T12:25:20.283Z,25.10
2024-01-21T12:27:58.859Z,25.44
2024-01-21T12:30:29.241Z,25.71
2024-01-21T12:33:00.003Z,26.27
2024-01-21T12:35:30.406Z,26.85
2024-01-21T12:38:04.226Z,27.40
2024-01-21T12:40:34.432Z,28.01
2024-01-21T12:43:04.421Z,28.04
2024-01-21T12:45:36.209Z,28.93
2024-01-21T12:48:07.095Z,30.31
2024-01-21T12:50:37.562Z,31.03
2024-01-21T12:53:07.540Z,30.78
2024-01-21T12:55:40.645Z,30.69
2024-01-21T12:58:14.608Z,31.80
2024-01-21T13:00:45.054Z,31.40
2024-01-21T13:03:15.616Z,31.05
2024-01-21T13:05:47.222Z,31.54
2024-01-21T13:08:19.955Z,31.99
2024-01-21T13:10:50.162Z,30.84
2024-01-21T13:13:20.174Z,29.75
2024-01-21T13:15:50.603Z,29.39
2024-01-21T13:18:20.803Z,29.30
2024-01-21T13:20:51.418Z,29.31
2024-01-21T13:23:21.833Z,29.01
2024-01-21T13:25:52.217Z,28.70
2024-01-21T13:28:24.799Z,28.13
2024-01-21T13:30:57.613Z,27.90
2024-01-21T13:33:31.900Z,27.49
2024-01-21T13:36:02.720Z,27.69
2024-01-21T13:38:35.071Z,27.67
2024-01-21T13:41:06.019Z,27.94
2024-01-21T13:43:37.759Z,27.69
2024-01-21T13:46:10.089Z,27.21
2024-01-21T13:48:40.290Z,26.85
2024-01-21T13:51:12.255Z,26.24
2024-01-21T13:53:43.666Z,25.49
2024-01-21T13:56:14.442Z,25.21
2024-01-21T13:58:44.479Z,25.55
2024-01-21T14:01:14.849Z,25.97
2024-01-21T14:03:45.316Z,26.29
2024-01-21T14:06:15.764Z,26.69
2024-01-21T14:08:45.774Z,26.96
2024-01-21T14:11:16.028Z,27.34
2024-01-21T14:13:46.381Z,27.42
2024-01-21T14:16:16.615Z,27.90
2024-01-21T14:18:48.711Z,28.43
2024-01-21T14:21:19.062Z,28.81
2024-01-21T14:23:52.205Z,28.74
2024-01-21T14:26:25.189Z,28.52
2024-01-21T14:28:57.136Z,29.64
2024-01-21T14:31:28.646Z,30.72
2024-01-21T14:34:00.193Z,30.96
2024-01-21T14:36:32.761Z,31.59
2024-01-21T14:39:02.788Z,30.85
2024-01-21T14:41:33.052Z,30.41
2024-01-21T14:44:03.371Z,30.47
2024-01-21T14:46:33.915Z,30.38
2024-01-21T14:49:04.317Z,31.38
2024-01-21T14:51:34.813Z,32.04
2024-01-21T14:54:05.391Z,32.26
2024-01-21T14:56:35.860Z,32.51
2024-01-21T14:59:06.212Z,31.83
2024-01-21T15:01:36.525Z,32.41
2024-01-21T15:04:06.608Z,31.47
2024-01-21T15:06:37.254Z,31.05
2024-01-21T15:09:09.708Z,30.21
2024-01-21T15:11:41.550Z,29.49
2024-01-21T15:14:28.218Z,29.13
2024-01-21T15:16:58.499Z,29.87
2024-01-21T15:19:28.387Z,29.45
2024-01-21T15:21:58.737Z,29.09
2024-01-21T15:24:29.325Z,30.31
2024-01-21T15:27:01.326Z,31.02
2024-01-21T15:29:31.312Z,31.52
2024-01-21T15:32:01.690Z,31.96
2024-01-21T15:34:32.112Z,30.78
2024-01-21T15:37:02.928Z,30.10
2024-01-21T15:39:32.923Z,30.63
2024-01-21T15:42:04.182Z,31.19
2024-01-21T15:44:34.218Z,31.84
2024-01-21T15:47:04.723Z,32.16
2024-01-21T15:49:35.369Z,30.98
2024-01-21T15:52:06.037Z,31.29
2024-01-21T15:54:36.842Z,31.42
2024-01-21T15:57:10.099Z,31.71
2024-01-21T15:59:40.053Z,31.27
2024-01-21T16:02:10.273Z,30.78
2024-01-21T16:04:40.250Z,29.82
2024-01-21T16:07:11.388Z,29.93
2024-01-21T16:09:41.435Z,29.60
2024-01-21T16:12:15.375Z,29.35
2024-01-21T16:14:45.976Z,30.12
2024-01-21T16:17:16.697Z,30.70
2024-01-21T16:19:50.843Z,30.66
2024-01-21T16:22:22.068Z,31.46
2024-01-21T16:24:52.369Z,31.82
2024-01-21T16:27:29.834Z,30.88
2024-01-21T16:30:03.239Z,30.75
2024-01-21T16:32:33.683Z,30.38
2024-01-21T16:35:04.073Z,30.11
2024-01-21T16:37:34.410Z,30.05
2024-01-21T16:40:04.467Z,30.87
2024-01-21T16:42:34.766Z,31.01
2024-01-21T16:45:06.081Z,30.04
2024-01-21T16:47:36.755Z,29.76
2024-01-21T16:50:07.134Z,28.98
2024-01-21T16:52:42.108Z,29.14
2024-01-21T16:55:12.164Z,29.37
2024-01-21T16:57:42.611Z,28.67
2024-01-21T17:00:46.928Z,29.11
2024-01-21T17:03:18.209Z,29.83
2024-01-21T17:05:48.339Z,29.77
2024-01-21T17:08:18.647Z,29.11
2024-01-21T17:11:00.782Z,30.63
2024-01-21T17:13:31.299Z,31.05
2024-01-21T17:16:01.349Z,30.76
2024-01-21T17:18:45.180Z,30.69
2024-01-21T17:21:15.226Z,30.47
2024-01-21T17:23:48.235Z,30.48
2024-01-21T17:26:21.366Z,30.56
2024-01-21T17:28:52.078Z,30.80
2024-01-21T17:31:22.080Z,30.50
2024-01-21T17:33:53.872Z,30.77
2024-01-21T17:36:28.871Z,31.33
2024-01-21T17:39:03.322Z,30.75
2024-01-21T17:41:34.613Z,31.05
2024-01-21T17:44:07.957Z,29.91
2024-01-21T17:46:38.065Z,30.07
2024-01-21T17:49:08.468Z,30.96
2024-01-21T17:51:38.526Z,31.03
2024-01-21T17:54:08.775Z,31.16
2024-01-21T17:56:38.614Z,30.55
2024-01-21T17:59:08.973Z,30.82
2024-01-21T18:01:39.173Z,30.77
2024-01-21T18:04:09.556Z,30.55
2024-01-21T18:06:40.011Z,30.21
2024-01-21T18:09:12.311Z,29.92
2024-01-21T18:11:42.071Z,30.43
2024-01-21T18:14:12.299Z,30.25
2024-01-21T18:16:42.374Z,30.57
2024-01-21T18:19:12.655Z,30.56
2024-01-21T18:21:47.621Z,30.22
2024-01-21T18:24:17.887Z,28.73
2024-01-21T18:26:48.051Z,28.95
2024-01-21T18:29:26.392Z,29.36
2024-01-21T18:32:06.813Z,29.31
2024-01-21T18:34:40.169Z,29.20
2024-01-21T18:37:10.338Z,29.24
2024-01-21T18:39:41.099Z,29.05
2024-01-21T18:42:11.874Z,29.10
2024-01-21T18:44:42.219Z,29.09
2024-01-21T18:47:12.288Z,29.28
2024-01-21T18:49:42.506Z,29.43
2024-01-21T18:52:14.260Z,29.95
2024-01-21T18:54:44.822Z,30.43
2024-01-21T18:57:16.172Z,29.78
2024-01-21T18:59:51.185Z,29.76
2024-01-21T19:02:32.928Z,30.08
2024-01-21T19:05:04.823Z,28.98
2024-01-21T19:07:42.532Z,28.93
2024-01-21T19:10:19.201Z,29.18
2024-01-21T19:12:51.111Z,28.99
2024-01-21T19:15:21.644Z,28.38
2024-01-21T19:17:53.394Z,28.70
2024-01-21T19:20:34.992Z,29.23
2024-01-21T19:23:06.294Z,29.30
2024-01-21T19:25:38.625Z,29.13
2024-01-21T19:28:11.598Z,29.47
2024-01-21T19:30:42.328Z,29.21
2024-01-21T19:33:12.698Z,29.55
2024-01-21T19:35:43.398Z,28.60
2024-01-21T19:38:15.052Z,28.77
2024-01-21T19:40:45.769Z,28.53
2024-01-21T19:43:16.175Z,27.73
2024-01-21T19:45:46.827Z,27.91
2024-01-21T19:48:19.052Z,27.19
2024-01-21T19:50:49.416Z,26.62
2024-01-21T19:53:19.758Z,26.52
2024-01-21T19:55:51.056Z,27.10
2024-01-21T19:58:21.334Z,27.54
2024-01-21T20:00:51.734Z,27.43
2024-01-21T20:03:22.869Z,27.23
2024-01-21T20:06:00.848Z,27.75
2024-01-21T20:08:31.299Z,28.07
2024-01-21T20:11:06.413Z,28.33
2024-01-21T20:13:36.600Z,28.08
2024-01-21T20:16:08.397Z,28.29
2024-01-21T20:18:40.689Z,28.55
2024-01-21T20:21:11.457Z,28.74
2024-01-21T20:23:41.954Z,28.02
2024-01-21T20:26:12.743Z,28.04
2024-01-21T20:28:55.020Z,27.58
2024-01-21T20:31:29.272Z,27.28
2024-01-21T20:34:12.194Z,27.35
2024-01-21T20:37:05.966Z,27.05
2024-01-21T20:39:36.365Z,26.84
2024-01-21T20:42:11.815Z,26.55
2024-01-21T20:44:43.796Z,26.28
2024-01-21T20:47:15.966Z,26.09
2024-01-21T20:49:49.474Z,25.97
2024-01-21T20:52:20.011Z,25.84
2024-01-21T20:54:50.072Z,25.84
2024-01-21T20:57:20.476Z,25.65
2024-01-21T20:59:50.398Z,25.96
2024-01-21T21:02:20.855Z,25.64
2024-01-21T21:04:51.054Z,25.73
2024-01-21T21:07:21.461Z,25.75
2024-01-21T21:09:51.529Z,25.97
2024-01-21T21:12:21.924Z,26.00
2024-01-21T21:14:53.404Z,25.77
2024-01-21T21:17:23.817Z,25.34
2024-01-21T21:19:53.891Z,25.34
2024-01-21T21:22:25.823Z,25.34
2024-01-21T21:25:00.405Z,25.38
2024-01-21T21:27:30.901Z,25.30
2024-01-21T21:30:01.190Z,25.13
2024-01-21T21:32:31.660Z,24.97
2024-01-21T21:35:01.790Z,24.90
2024-01-21T21:37:32.108Z,24.77
2024-01-21T21:40:02.165Z,24.68
2024-01-21T21:42:34.034Z,24.66
2024-01-21T21:45:06.377Z,24.49
2024-01-21T21:47:36.779Z,24.27
2024-01-21T21:50:07.675Z,24.12
2024-01-21T21:52:38.059Z,23.92
2024-01-21T21:55:08.520Z,23.87
2024-01-21T21:57:38.904Z,23.77
2024-01-21T22:00:15.364Z,23.72
2024-01-21T22:02:47.276Z,23.65
2024-01-21T22:05:22.567Z,23.60
2024-01-21T22:07:53.099Z,23.48
2024-01-21T22:10:23.920Z,23.38
2024-01-21T22:12:54.756Z,23.28
2024-01-21T22:15:24.878Z,23.21
2024-01-21T22:17:55.587Z,23.09
2024-01-21T22:20:25.813Z,22.96
2024-01-21T22:22:58.687Z,22.88
2024-01-21T22:25:28.823Z,22.78
2024-01-21T22:27:58.584Z,22.71
2024-01-21T22:30:29.251Z,22.59
2024-01-21T22:32:59.681Z,22.50
2024-01-21T22:35:30.416Z,22.44
2024-01-21T22:38:00.565Z,22.42
2024-01-21T22:40:31.218Z,22.35
2024-01-21T22:43:01.301Z,22.30
2024-01-21T22:45:31.760Z,22.23
2024-01-21T22:48:02.179Z,22.20
2024-01-21T22:50:32.856Z,22.18
2024-01-21T22:53:03.258Z,22.13
2024-01-21T22:55:33.772Z,22.18
2024-01-21T22:58:04.577Z,22.11
2024-01-21T23:00:35.202Z,22.06
2024-01-21T23:03:05.478Z,22.01
2024-01-21T23:05:36.084Z,21.90
2024-01-21T23:08:06.760Z,21.92
2024-01-21T23:10:37.419Z,21.89
2024-01-21T23:13:08.752Z,21.83
2024-01-21T23:15:39.263Z,21.74
2024-01-21T23:18:09.757Z,21.69
2024-01-21T23:20:40.682Z,21.62
2024-01-21T23:23:10.673Z,21.47
2024-01-21T23:25:44.088Z,21.42
2024-01-21T23:28:14.501Z,21.36
2024-01-21T23:30:48.700Z,21.23
2024-01-21T23:33:19.511Z,21.23
2024-01-21T23:35:50.424Z,21.15
2024-01-21T23:38:22.028Z,21.10
2024-01-21T23:40:53.128Z,20.83
2024-01-21T23:43:23.480Z,20.67
2024-01-21T23:45:53.645Z,20.53
2024-01-21T23:48:24.092Z,20.43
2024-01-21T23:50:54.284Z,20.42
2024-01-21T23:53:24.855Z,20.19
2024-01-21T23:55:56.387Z,20.02
2024-01-21T23:58:26.777Z,19.81
